Latest Weather Observations for Dubbo

IDN60801

Issued at 8:05 pm EST Monday 21 April 2014 (issued every 30 minutes, with the page automatically refreshed every 10 minutes)

About weather observations | Map of weather stations | Latest weather observations for NSW | Other Formats
Station Details ID: 065070 Name: DUBBO AIRPORT AWS Lat: -32.22 Lon: 148.58 Height: 284.0 m
Data from the previous 72 hours. | See also: Recent months at Dubbo
Date/Time
EST
Temp
°C
App
Temp
°C
Dew
Point
Rel
Hum
%
Delta-T
°C
Wind Press
QNH
hPa
Press
MSL
hPa
Rain
since 9 am
mm
Dir
 
Spd
km/h
Gust
km/h
Spd
kts
Gust
kts
21/08:00pm 9.6 8.9 6.9 83 1.3 E 0 0 0 0 1020.8 - 0.0
21/07:30pm 10.8 10.2 7.3 79 1.7 ENE 0 0 0 0 1020.7 - 0.0
21/07:00pm 10.8 9.8 7.3 79 1.7 W 2 6 1 3 1020.6 - 0.0
21/06:43pm 11.3 10.4 7.6 78 1.8 N 2 7 1 4 1020.4 - 0.0
21/06:30pm 10.7 10.0 6.8 77 1.9 NE 0 0 0 0 1020.3 - 0.0
21/06:24pm 11.7 11.0 6.8 72 2.4 CALM 0 0 0 0 1020.2 - 0.0
21/06:00pm 13.1 11.3 7.3 68 2.9 NE 6 6 3 3 1019.9 1019.1 0.0
21/05:30pm 15.5 13.5 7.3 58 4.1 NNE 7 9 4 5 1019.6 - 0.0
21/05:00pm 17.4 15.0 7.2 51 5.2 NNE 9 11 5 6 1019.4 - 0.0
21/04:30pm 19.6 18.5 7.0 44 6.5 N 2 7 1 4 1019.3 - 0.0
21/04:00pm 20.5 19.9 7.2 42 6.9 CALM 0 6 0 3 1019.3 - 0.0
21/03:30pm 20.5 19.5 7.2 42 6.9 N 2 11 1 6 1019.1 - 0.0
21/03:00pm 20.3 17.5 7.0 42 6.8 ESE 11 19 6 10 1019.2 1018.5 0.0
21/02:30pm 19.7 17.2 6.4 42 6.7 S 9 15 5 8 1019.2 - 0.0
21/02:00pm 20.5 18.2 7.5 43 6.8 W 9 17 5 9 1019.4 - 0.0
21/01:30pm 19.8 17.6 6.2 41 6.9 SSW 7 13 4 7 1019.9 - 0.0
21/01:00pm 19.7 17.8 7.4 45 6.4 S 7 13 4 7 1020.3 - 0.0
21/12:30pm 18.7 15.7 5.9 43 6.4 SSE 11 17 6 9 1020.9 - 0.0
21/12:00pm 18.0 15.5 4.9 42 6.4 SSW 7 17 4 9 1021.3 1020.6 0.0
21/11:30am 18.4 15.7 7.2 48 5.7 SSE 11 17 6 9 1021.9 - 0.0
21/11:00am 17.2 14.5 5.8 47 5.6 SSE 9 17 5 9 1022.3 - 0.0
21/10:30am 16.2 14.0 7.7 57 4.3 E 9 13 5 7 1022.5 - 0.0
21/10:00am 14.9 12.8 8.4 65 3.3 SE 9 13 5 7 1022.7 - 0.0
21/09:30am 13.2 10.9 7.6 69 2.8 SE 9 11 5 6 1022.9 - 0.0
21/09:00am 12.1 9.5 7.6 74 2.2 SE 11 13 6 7 1022.8 1022.1 0.0
21/08:30am 10.4 8.1 7.3 81 1.5 SE 9 13 5 7 1022.6 - 0.0
21/08:00am 8.5 5.7 7.0 90 0.7 SE 11 13 6 7 1022.2 - 0.0
21/07:30am 6.8 6.1 6.8 100 0.0 CALM 0 0 0 0 1021.8 - 0.0
21/07:00am 4.4 3.2 4.4 100 0.0 CALM 0 0 0 0 1021.6 - 0.0
21/06:30am 3.4 2.0 3.3 99 0.0 CALM 0 0 0 0 1021.2 - 0.0
21/06:00am 4.0 1.5 3.9 99 0.0 E 6 7 3 4 1020.9 1020.2 0.0
21/05:30am 3.8 1.0 3.4 97 0.2 ESE 7 9 4 5 1020.7 - 0.0
21/05:00am 4.4 1.9 4.0 97 0.2 NE 6 7 3 4 1020.5 - 0.0
21/04:30am 4.3 2.9 3.7 96 0.3 CALM 0 0 0 0 1020.1 - 0.0
21/04:00am 4.9 2.5 4.5 97 0.2 SE 6 9 3 5 1019.9 - 0.0
21/03:30am 4.6 3.3 4.0 96 0.3 CALM 0 0 0 0 1020.0 - 0.0
21/03:00am 4.6 3.2 3.7 94 0.4 CALM 0 0 0 0 1020.1 1019.3 0.0
21/02:30am 5.4 3.3 3.7 89 0.7 SE 4 13 2 7 1020.0 - 0.0
21/02:00am 6.6 2.7 5.4 92 0.5 SSE 15 17 8 9 1020.0 - 0.0
21/01:30am 6.1 2.5 5.2 94 0.4 SSE 13 15 7 8 1020.2 - 0.0
21/01:00am 6.5 4.2 4.8 89 0.8 SE 6 7 3 4 1020.3 - 0.0
21/12:30am 6.8 4.6 5.3 90 0.7 SE 6 7 3 4 1020.1 - 0.0
21/12:00am 6.6 4.0 4.4 86 1.0 SE 7 9 4 5 1020.1 1019.3 0.0
 
Date/Time
EST
Temp
°C
App
Temp
°C
Dew
Point
Rel
Hum
%
Delta-T
°C
Wind Press
QNH
hPa
Press
MSL
hPa
Rain
since 9 am
mm
Dir
 
Spd
km/h
Gust
km/h
Spd
kts
Gust
kts
20/11:30pm 7.0 4.6 5.3 89 0.8 SE 7 9 4 5 1020.2 - 0.0
20/11:00pm 7.9 5.8 5.7 86 1.0 E 6 7 3 4 1020.2 - 0.0
20/10:30pm 7.2 4.8 4.3 82 1.3 SSW 6 9 3 5 1020.2 - 0.0
20/10:00pm 8.2 5.3 4.6 78 1.6 S 9 13 5 7 1020.2 - 0.0
20/09:30pm 11.3 7.7 5.2 66 2.8 SSW 13 15 7 8 1020.0 - 0.0
20/09:00pm 11.7 8.1 4.9 63 3.1 SSW 13 17 7 9 1019.9 1019.1 0.0
20/08:30pm 11.9 8.3 5.1 63 3.2 SSW 13 15 7 8 1019.7 - 0.0
20/08:00pm 11.7 8.1 5.1 64 3.1 SW 13 15 7 8 1019.5 - 0.0
20/07:30pm 11.3 7.7 5.0 65 2.9 SW 13 13 7 7 1019.2 - 0.0
20/07:00pm 11.7 8.1 5.1 64 3.1 SW 13 15 7 8 1019.0 - 0.0
20/06:30pm 12.1 9.0 5.5 64 3.1 SW 11 11 6 6 1018.7 - 0.0
20/06:00pm 12.6 9.8 5.3 61 3.4 WSW 9 11 5 6 1018.5 1017.8 0.0
20/05:30pm 14.8 11.6 5.1 52 4.6 SW 11 13 6 7 1018.2 - 0.0
20/05:00pm 17.6 14.1 5.5 45 5.9 WSW 13 15 7 8 1017.8 - 0.0
20/04:30pm 19.1 15.3 5.9 42 6.6 WSW 15 20 8 11 1017.6 - 0.0
20/04:00pm 19.6 15.7 5.3 39 7.1 WSW 15 22 8 12 1017.6 - 0.0
20/03:30pm 19.9 16.3 5.2 38 7.3 WSW 13 19 7 10 1017.5 - 0.0
20/03:00pm 19.6 14.6 4.5 37 7.4 WSW 20 28 11 15 1017.6 1016.9 0.0
20/02:30pm 20.1 15.5 5.4 38 7.3 W 19 30 10 16 1017.5 - 0.0
20/02:00pm 20.0 15.9 4.5 36 7.6 W 15 24 8 13 1017.5 - 0.0
20/01:30pm 20.0 15.2 4.5 36 7.6 W 19 28 10 15 1017.5 - 0.0
20/01:00pm 19.9 16.0 5.5 39 7.2 W 15 26 8 14 1017.7 - 0.0
20/12:30pm 19.4 16.5 6.5 43 6.5 W 11 19 6 10 1018.2 - 0.0
20/12:00pm 18.8 16.8 8.5 51 5.4 W 9 19 5 10 1018.7 1018.0 0.0
20/11:30am 18.4 17.0 9.5 56 4.8 SSW 7 15 4 8 1018.9 - 0.0
20/11:00am 17.2 15.3 9.1 59 4.3 NW 9 15 5 8 1019.5 - 0.0
20/10:30am 15.9 14.3 8.2 60 3.9 S 6 11 3 6 1019.7 - 0.0
20/10:00am 14.9 13.3 8.6 66 3.2 SSE 7 11 4 6 1019.9 - 0.0
20/09:30am 12.7 10.5 8.0 73 2.3 SE 9 13 5 7 1019.6 - 0.0
20/09:00am 11.3 8.7 7.8 79 1.7 SE 11 13 6 7 1019.7 1019.0 0.0
20/08:30am 9.5 6.8 7.3 86 1.1 SE 11 13 6 7 1019.6 - 0.0
20/08:00am 8.5 6.3 7.7 95 0.4 SE 9 15 5 8 1019.2 - 0.0
20/07:30am 6.6 3.3 6.3 98 0.1 SSE 13 17 7 9 1018.9 - 0.0
20/07:00am 5.1 1.1 5.1 100 0.0 SSE 15 19 8 10 1018.7 - 0.0
20/06:30am 3.6 0.9 3.5 99 0.0 SSE 7 11 4 6 1018.6 - 0.0
20/06:00am 3.8 0.7 3.7 99 0.0 SE 9 13 5 7 1018.3 1017.6 0.0
20/05:30am 4.3 1.3 4.3 100 0.0 SSE 9 11 5 6 1018.1 - 0.0
20/05:00am 4.0 1.0 3.9 99 0.0 SE 9 11 5 6 1017.6 - 0.0
20/04:30am 4.0 1.3 3.7 98 0.1 ESE 7 9 4 5 1017.5 - 0.0
20/04:00am 5.0 3.5 5.0 100 0.0 SE 2 7 1 4 1017.5 - 0.0
20/03:30am 3.2 0.3 2.8 97 0.2 SE 7 9 4 5 1017.5 - 0.0
20/03:00am 4.6 3.3 4.3 98 0.1 CALM 0 0 0 0 1017.7 1017.0 0.0
20/02:30am 5.2 4.0 4.5 95 0.3 CALM 0 0 0 0 1017.7 - 0.0
20/02:00am 4.7 2.1 4.1 96 0.3 SE 7 13 4 7 1017.8 - 0.0
20/01:30am 5.0 2.3 3.8 92 0.5 SE 7 11 4 6 1017.9 - 0.0
20/01:00am 6.0 2.8 5.0 93 0.4 SSE 11 13 6 7 1017.9 - 0.0
20/12:30am 6.3 2.8 5.3 93 0.4 SSE 13 17 7 9 1018.0 - 0.0
20/12:00am 5.5 3.1 4.3 92 0.5 SSE 6 7 3 4 1018.1 1017.4 0.0
 
Date/Time
EST
Temp
°C
App
Temp
°C
Dew
Point
Rel
Hum
%
Delta-T
°C
Wind Press
QNH
hPa
Press
MSL
hPa
Rain
since 9 am
mm
Dir
 
Spd
km/h
Gust
km/h
Spd
kts
Gust
kts
19/11:30pm 5.5 3.0 3.8 89 0.7 E 6 7 3 4 1018.4 - 0.0
19/11:00pm 6.8 5.4 5.4 91 0.6 S 2 7 1 4 1018.4 - 0.0
19/10:30pm 5.9 4.2 4.2 89 0.7 W 2 6 1 3 1018.6 - 0.0
19/10:00pm 7.2 5.3 4.7 84 1.1 ESE 4 11 2 6 1018.9 - 0.0
19/09:30pm 7.9 5.6 4.8 81 1.4 E 6 7 3 4 1018.8 - 0.0
19/09:00pm 8.4 5.7 3.8 73 2.0 SSW 7 9 4 5 1018.7 1018.0 0.0
19/08:30pm 10.0 6.8 5.0 71 2.3 S 11 13 6 7 1018.5 - 0.0
19/08:00pm 10.1 6.8 4.5 68 2.5 SSW 11 15 6 8 1018.3 - 0.0
19/07:30pm 10.0 6.7 4.6 69 2.5 SW 11 13 6 7 1018.2 - 0.0
19/07:00pm 11.3 8.0 4.3 62 3.2 SW 11 13 6 7 1017.8 - 0.0
19/06:30pm 11.9 8.6 4.4 60 3.4 SW 11 13 6 7 1017.5 - 0.0
19/06:00pm 13.2 9.9 4.4 55 4.1 SW 11 13 6 7 1017.2 1016.4 0.0
19/05:30pm 15.2 11.9 4.3 48 5.1 SSW 11 15 6 8 1016.9 - 0.0
19/05:00pm 17.1 13.0 4.4 43 6.1 SW 15 20 8 11 1016.8 - 0.0
19/04:30pm 18.0 13.9 4.2 40 6.6 SW 15 26 8 14 1016.7 - 0.0
19/04:00pm 18.6 14.2 4.8 40 6.7 SW 17 22 9 12 1016.6 - 0.0
19/03:30pm 18.5 13.5 3.6 37 7.1 SSW 19 28 10 15 1016.6 - 0.0
19/03:00pm 19.4 14.9 4.3 37 7.3 SW 17 26 9 14 1016.8 1016.0 0.0
19/02:30pm 19.6 15.2 4.5 37 7.4 SW 17 22 9 12 1016.7 - 0.0
19/02:00pm 19.4 14.0 4.3 37 7.3 WSW 22 30 12 16 1016.9 - 0.0
19/01:30pm 19.5 14.8 5.2 39 7.1 WSW 19 30 10 16 1016.9 - 0.0
19/01:00pm 19.3 14.5 5.4 40 6.9 W 20 28 11 15 1017.4 - 0.0
19/12:30pm 19.3 14.1 5.7 41 6.8 W 22 30 12 16 1017.9 - 0.0
19/12:00pm 19.3 15.2 6.4 43 6.5 W 17 24 9 13 1018.2 1017.5 0.0
19/11:30am 19.2 15.9 6.3 43 6.5 W 13 19 7 10 1018.6 - 0.0
19/11:00am 18.3 14.1 5.8 44 6.2 SSW 17 26 9 14 1018.9 - 0.0
19/10:30am 18.5 14.5 6.7 46 6.0 SSW 17 24 9 13 1019.2 - 0.0
19/10:00am 17.9 14.7 7.0 49 5.5 SSW 13 19 7 10 1019.1 - 0.0
19/09:30am 17.5 14.8 8.9 57 4.5 WSW 13 17 7 9 1019.1 - 0.0
19/09:00am 16.6 14.7 10.5 67 3.3 SW 11 15 6 8 1019.0 1018.3 0.0
19/08:30am 15.0 13.9 10.8 76 2.3 WSW 7 9 4 5 1018.9 - 0.0
19/08:00am 13.7 13.9 10.7 82 1.6 CALM 0 0 0 0 1018.8 - 0.0
19/07:30am 12.7 13.3 11.9 95 0.4 CALM 0 0 0 0 1018.6 - 0.0
19/07:00am 9.2 8.9 8.7 97 0.2 CALM 0 0 0 0 1018.4 - 0.0
19/06:30am 9.5 9.2 8.6 94 0.4 CALM 0 0 0 0 1018.2 - 0.0
19/06:00am 9.1 8.6 7.7 91 0.7 CALM 0 0 0 0 1017.8 1017.1 0.0
19/05:30am 11.0 11.0 9.8 92 0.6 CALM 0 0 0 0 1017.5 - 0.0
19/05:00am 11.0 10.9 9.4 90 0.8 CALM 0 0 0 0 1017.5 - 0.0
19/04:30am 11.6 11.7 10.3 92 0.7 CALM 0 0 0 0 1017.3 - 0.0
19/04:00am 11.2 11.1 9.6 90 0.8 CALM 0 0 0 0 1017.1 - 0.0
19/03:30am 11.0 10.8 8.9 87 1.1 CALM 0 0 0 0 1017.1 - 0.0
19/03:00am 12.3 12.4 10.0 86 1.2 CALM 0 2 0 1 1016.9 1016.1 0.0
19/02:30am 12.7 12.2 10.6 87 1.1 SW 4 7 2 4 1016.8 - 0.0
19/02:00am 12.8 13.2 11.2 90 0.9 CALM 0 0 0 0 1017.0 - 0.0
19/01:30am 13.1 13.5 11.2 88 1.0 CALM 0 0 0 0 1017.1 - 0.0
19/01:00am 12.9 13.2 11.0 88 1.0 CALM 0 0 0 0 1017.1 - 0.0
19/12:30am 12.8 13.1 10.9 88 1.0 CALM 0 0 0 0 1016.9 - 0.0
19/12:00am 13.1 13.4 11.0 87 1.1 CALM 0 0 0 0 1017.0 1016.2 0.0
 
Date/Time
EST
Temp
°C
App
Temp
°C
Dew
Point
Rel
Hum
%
Delta-T
°C
Wind Press
QNH
hPa
Press
MSL
hPa
Rain
since 9 am
mm
Dir
 
Spd
km/h
Gust
km/h
Spd
kts
Gust
kts
18/11:30pm 14.3 14.8 11.5 83 1.5 CALM 0 0 0 0 1017.1 - 0.0
18/11:00pm 14.9 14.6 11.5 80 1.8 NNW 4 7 2 4 1017.2 - 0.0
18/10:30pm 14.2 13.6 11.7 85 1.4 ENE 6 7 3 4 1017.2 - 0.0
18/10:00pm 14.9 15.1 10.7 76 2.2 CALM 0 0 0 0 1017.3 - 0.0
18/09:30pm 14.7 14.5 10.5 76 2.2 NW 2 7 1 4 1017.3 - 0.0
18/09:00pm 15.2 15.4 10.4 73 2.6 CALM 0 0 0 0 1017.2 1016.4 0.0
18/08:30pm 15.5 14.8 10.1 70 2.9 WNW 4 7 2 4 1017.1 - 0.0

Other Formats:

Comma delimited format used in spreadsheet applications
http://www.bom.gov.au/fwo/IDN60801/IDN60801.95719.axf

JavaScript Object Notation format (JSON) in row-major order
http://www.bom.gov.au/fwo/IDN60801/IDN60801.95719.json